Terminal Aerodrome Forecast
Issued by NWS

Home | Current Version | Previous Version | Text Only | Print | Product List | Glossary On
Versions: 1 2 3 4 5 6 7 8 9 10 11 12 13 14
000
FTUS42 TJSJ 231539 AAA
TAFJSJ
TAF AMD
TJSJ 231539Z 2316/2412 07015G23KT P6SM VCSH SCT025 SCT040
     FM232200 10010KT P6SM FEW025=

USA.gov is the U.S. government's official web portal to all federal, state and local government web resources and services.